KPPA

Perry Lefors Field Airport

Pampa, Texas, USA
METAR KPPA 181635Z AUTO 17005KT 10SM SCT023 BKN044 OVC050 11/09 A3046 RMK AO2 LTG DSNT W T01070089
Observed Flight Rules
Oct-18 @ 16:35 UTC (18 minutes ago) Visual Flight Rules
Wind Visibility Clouds
170° at 5 knots 10 miles
  • Scattered at 2,300' AGL
  • Broken at 4,400' AGL
  • Overcast at 5,000' AGL
Temperatures Readings
Current 11°C / 52°F
Dewpoint 9°C / 48°F
Humidity 88%
Altimeter 30.46" Hg
Pressure 1031 hPa
Elevation 989
METAR KPPA 181635Z AUTO 17005KT 10SM SCT023 BKN044 OVC050 11/09 A3046 RMK AO2 LTG DSNT W T01070089
Observed Flight Rules
Oct-18 @ 16:35 UTC
(18 minutes ago)
VFR
Wind Visibility
170° at 5 knots 10 miles
Clouds
  • Scattered at 2,300' AGL
  • Broken at 4,400' AGL
  • Overcast at 5,000' AGL
Temperature Dewpoint
11°C / 52°F 9°C / 48°F
Humidity Altimeter Pressure
88% 30.46" Hg 1031 hPa